Time;durP1;ratioP1;P1;durP2;ratioP2;P2;SDS_P1;SDS_P2;PMS_P1;PMS_P2;Temp;Humidity;BMP_temperature;BMP_pressure;BME280_temperature;BME280_humidity;BME280_pressure;Samples;Min_cycle;Max_cycle;Signal;HPM_P1;HPM_P2
2022/06/03 00:02:32;;;;;;;0.50;0.50;;;10.20;99.90;;;;;;5027319;28;20092;-72
2022/06/03 00:05:23;;;;;;;0.77;0.50;;;10.20;99.90;;;;;;5028086;28;20079;-72
2022/06/03 00:07:51;;;;;;;0.82;0.60;;;10.20;99.90;;;;;;5027106;28;20047;-71
2022/06/03 00:10:26;;;;;;;0.38;0.38;;;10.20;99.90;;;;;;5026353;28;20124;-72
2022/06/03 00:12:59;;;;;;;0.90;0.60;;;10.20;99.90;;;;;;5023818;28;20045;-72
2022/06/03 00:15:41;;;;;;;1.00;0.70;;;10.20;99.90;;;;;;5020973;28;20063;-72
2022/06/03 00:18:25;;;;;;;0.63;0.50;;;10.20;99.90;;;;;;5010261;28;20060;-72
2022/06/03 00:21:02;;;;;;;0.70;0.50;;;10.20;99.90;;;;;;5026690;28;20386;-72
2022/06/03 00:23:51;;;;;;;;;;;10.20;99.90;;;;;;5021210;28;20052;-72
2022/06/03 00:26:29;;;;;;;0.47;0.47;;;10.10;99.90;;;;;;5028000;28;19917;-72
2022/06/03 00:29:37;;;;;;;0.93;0.60;;;10.00;99.90;;;;;;5005496;28;20120;-72
2022/06/03 00:32:16;;;;;;;0.70;0.40;;;9.90;99.90;;;;;;4995582;28;20064;-72
2022/06/03 00:35:18;;;;;;;0.90;0.60;;;9.90;99.90;;;;;;5011132;28;20052;-76
2022/06/03 00:37:59;;;;;;;0.75;0.60;;;9.80;99.90;;;;;;5028224;28;20629;-75
2022/06/03 00:41:03;;;;;;;0.70;0.50;;;9.80;99.90;;;;;;5017568;28;20607;-76
2022/06/03 00:43:46;;;;;;;1.10;0.77;;;9.80;99.90;;;;;;5033748;28;20084;-76
2022/06/03 00:46:42;;;;;;;0.65;0.60;;;9.70;99.90;;;;;;5026527;28;20107;-76
2022/06/03 00:49:13;;;;;;;0.88;0.60;;;9.70;99.90;;;;;;5037754;28;20154;-76
2022/06/03 00:52:13;;;;;;;0.40;0.40;;;9.60;99.90;;;;;;5026446;28;20902;-76
2022/06/03 00:54:53;;;;;;;0.73;0.52;;;9.60;99.90;;;;;;5020810;28;20064;-75
2022/06/03 00:57:58;;;;;;;0.70;0.60;;;9.50;99.90;;;;;;5007483;28;20046;-76
2022/06/03 01:00:32;;;;;;;0.70;0.70;;;9.40;99.90;;;;;;5023766;28;20046;-76
2022/06/03 01:03:22;;;;;;;0.85;0.73;;;9.30;99.90;;;;;;5025313;28;20053;-76
2022/06/03 01:06:00;;;;;;;1.02;0.65;;;9.30;99.90;;;;;;5025743;28;20490;-76
2022/06/03 01:08:40;;;;;;;0.80;0.73;;;9.30;99.90;;;;;;5026418;28;20052;-75
2022/06/03 01:11:05;;;;;;;0.82;0.68;;;9.20;99.90;;;;;;5025582;28;20123;-75
2022/06/03 01:13:50;;;;;;;0.82;0.60;;;9.20;99.90;;;;;;5025533;28;20483;-75
2022/06/03 01:16:24;;;;;;;0.65;0.60;;;9.20;99.90;;;;;;5023230;28;20387;-76
2022/06/03 01:19:09;;;;;;;0.77;0.60;;;9.20;99.90;;;;;;5024522;28;20057;-75
2022/06/03 01:21:44;;;;;;;0.60;0.60;;;9.20;99.90;;;;;;5009834;28;20049;-75
2022/06/03 01:24:15;;;;;;;0.65;0.60;;;9.20;99.90;;;;;;5024666;28;20513;-76
2022/06/03 01:27:19;;;;;;;1.00;0.77;;;9.30;99.90;;;;;;5026660;28;20041;-75
2022/06/03 01:30:06;;;;;;;0.75;0.73;;;9.30;99.90;;;;;;5007975;28;20152;-76
2022/06/03 01:33:07;;;;;;;0.98;0.70;;;9.40;99.90;;;;;;5023944;28;20049;-76
2022/06/03 01:35:59;;;;;;;1.15;0.63;;;9.40;99.90;;;;;;5026825;28;20056;-74
2022/06/03 01:38:56;;;;;;;0.57;0.50;;;9.40;99.90;;;;;;5021158;28;20041;-75
2022/06/03 01:41:48;;;;;;;0.60;0.50;;;9.30;99.90;;;;;;5024577;28;20080;-75
2022/06/03 01:44:42;;;;;;;0.43;0.43;;;9.30;99.90;;;;;;5025291;28;20080;-76
2022/06/03 01:47:35;;;;;;;0.70;0.60;;;9.30;99.90;;;;;;5026736;28;20049;-76
2022/06/03 01:50:16;;;;;;;0.50;0.50;;;9.30;99.90;;;;;;5008979;28;20049;-76
2022/06/03 01:53:01;;;;;;;0.82;0.60;;;9.20;99.90;;;;;;5021302;28;20945;-75
2022/06/03 01:56:03;;;;;;;1.20;0.60;;;9.10;99.90;;;;;;5024680;28;20057;-76
2022/06/03 01:58:39;;;;;;;0.80;0.70;;;9.10;99.90;;;;;;5025067;28;20037;-75
2022/06/03 02:01:37;;;;;;;0.82;0.60;;;9.10;99.90;;;;;;5025949;28;20053;-75
2022/06/03 02:04:02;;;;;;;;;;;9.10;99.90;;;;;;5002563;28;20135;-75
2022/06/03 02:07:05;;;;;;;1.17;1.00;;;9.20;99.90;;;;;;5009882;28;19920;-75
2022/06/03 02:10:09;;;;;;;1.80;1.00;;;9.20;99.90;;;;;;5002259;28;20099;-76
2022/06/03 02:12:44;;;;;;;0.95;0.80;;;9.20;99.90;;;;;;5025045;28;20081;-76
2022/06/03 02:15:47;;;;;;;0.80;0.65;;;9.30;99.90;;;;;;5009486;28;20076;-75
2022/06/03 02:18:18;;;;;;;1.30;1.00;;;9.30;99.90;;;;;;5026322;28;20052;-76
2022/06/03 02:21:07;;;;;;;1.30;0.80;;;9.30;99.90;;;;;;5025280;28;20042;-76
2022/06/03 02:24:10;;;;;;;1.27;0.80;;;9.40;99.90;;;;;;5007940;28;20037;-74
2022/06/03 02:27:04;;;;;;;0.93;0.80;;;9.30;99.90;;;;;;5026187;28;20071;-71
2022/06/03 02:33:15;;;;;;;0.95;0.80;;;9.30;99.90;;;;;;5008409;28;20045;-72
2022/06/03 02:36:02;;;;;;;0.68;0.50;;;9.30;99.90;;;;;;5027755;28;20037;-72
2022/06/03 02:38:34;;;;;;;;;;;9.20;99.90;;;;;;5013677;28;20110;-71
2022/06/03 02:41:18;;;;;;;0.85;0.60;;;9.20;99.90;;;;;;5029355;28;19917;-71
2022/06/03 02:44:02;;;;;;;0.60;0.57;;;9.20;99.90;;;;;;5028301;28;22040;-71
2022/06/03 02:46:39;;;;;;;0.52;0.50;;;9.20;99.90;;;;;;5027238;28;20030;-72
2022/06/03 02:49:44;;;;;;;1.63;0.60;;;9.20;99.90;;;;;;5029609;28;20052;-72
2022/06/03 02:52:36;;;;;;;0.90;0.60;;;9.20;99.90;;;;;;5017803;28;20045;-72
2022/06/03 02:55:29;;;;;;;0.50;0.50;;;9.20;99.90;;;;;;5025782;28;20504;-72
2022/06/03 02:58:34;;;;;;;1.98;0.60;;;9.20;99.90;;;;;;5029232;28;20099;-71
2022/06/03 03:01:13;;;;;;;1.02;0.50;;;9.20;99.90;;;;;;5037670;28;20053;-71
2022/06/03 03:04:08;;;;;;;1.20;0.80;;;9.30;99.90;;;;;;5030286;28;20107;-71
2022/06/03 03:07:04;;;;;;;1.15;0.73;;;9.30;99.90;;;;;;5027500;28;20057;-71
2022/06/03 03:09:45;;;;;;;0.85;0.63;;;9.30;99.90;;;;;;5018841;28;20499;-70
2022/06/03 03:12:23;;;;;;;1.70;0.65;;;9.50;99.90;;;;;;5025572;28;20342;-71
2022/06/03 03:15:06;;;;;;;1.23;0.70;;;9.50;99.90;;;;;;5030123;28;20049;-71
2022/06/03 03:17:59;;;;;;;1.42;0.60;;;9.40;99.90;;;;;;5028737;28;20127;-71
2022/06/03 03:21:07;;;;;;;1.02;0.60;;;9.40;99.90;;;;;;5011720;28;20069;-71
2022/06/03 03:23:42;;;;;;;0.30;0.30;;;9.50;99.90;;;;;;5025494;28;20049;-71
2022/06/03 03:26:08;;;;;;;0.50;0.50;;;9.40;99.90;;;;;;5027332;28;20050;-71
2022/06/03 03:28:45;;;;;;;0.45;0.45;;;9.50;99.90;;;;;;5013053;28;20060;-71
2022/06/03 03:31:44;;;;;;;0.60;0.60;;;9.40;99.90;;;;;;5005349;28;20038;-71
2022/06/03 03:34:48;;;;;;;1.52;1.05;;;9.40;99.90;;;;;;4993502;28;20049;-71
2022/06/03 03:37:48;;;;;;;1.15;0.80;;;9.40;99.90;;;;;;4992386;28;20568;-71
2022/06/03 03:40:39;;;;;;;1.15;0.98;;;9.50;99.90;;;;;;5003480;28;20046;-71
2022/06/03 03:43:28;;;;;;;0.93;0.82;;;9.50;99.90;;;;;;5024224;28;20054;-72
2022/06/03 03:46:27;;;;;;;1.38;1.25;;;9.70;99.90;;;;;;5028942;28;20041;-71
2022/06/03 03:49:26;;;;;;;1.65;1.55;;;9.70;99.90;;;;;;5020173;28;20079;-71
2022/06/03 03:51:58;;;;;;;2.00;1.70;;;9.80;99.90;;;;;;5010173;28;20072;-72
2022/06/03 03:54:48;;;;;;;4.45;1.60;;;9.80;99.90;;;;;;5007777;28;20042;-72
2022/06/03 03:57:23;;;;;;;2.97;1.83;;;9.80;99.90;;;;;;5028413;28;20119;-70
2022/06/03 04:00:00;;;;;;;2.05;1.60;;;9.90;99.90;;;;;;5025200;28;20052;-70
2022/06/03 04:02:51;;;;;;;1.90;1.70;;;9.90;99.90;;;;;;5012252;28;20513;-70
2022/06/03 04:05:38;;;;;;;1.75;1.42;;;10.00;99.90;;;;;;5026018;28;20264;-71
2022/06/03 04:08:30;;;;;;;3.22;1.58;;;10.00;99.90;;;;;;5026015;28;20115;-71
2022/06/03 04:11:33;;;;;;;1.90;1.70;;;10.00;99.90;;;;;;5016960;28;20046;-71
2022/06/03 04:14:24;;;;;;;2.88;1.80;;;10.10;99.90;;;;;;5027725;28;20475;-76
2022/06/03 04:17:17;;;;;;;2.72;1.92;;;10.20;99.90;;;;;;5026944;28;20034;-74
2022/06/03 04:20:14;;;;;;;3.03;2.30;;;10.30;99.90;;;;;;5026787;28;20093;-76
2022/06/03 04:22:59;;;;;;;3.88;2.40;;;10.30;99.90;;;;;;5021280;28;20133;-71
2022/06/03 04:25:55;;;;;;;1.60;1.50;;;10.40;99.90;;;;;;5024401;28;20060;-71
2022/06/03 04:28:50;;;;;;;2.88;1.55;;;10.40;99.90;;;;;;5026336;28;20056;-71
2022/06/03 04:31:41;;;;;;;1.75;1.30;;;10.40;99.90;;;;;;5022585;28;20048;-71
2022/06/03 04:34:34;;;;;;;3.03;2.13;;;10.40;99.90;;;;;;5031983;28;20045;-71
2022/06/03 04:37:25;;;;;;;2.70;1.90;;;10.40;99.90;;;;;;5026817;28;20103;-71
2022/06/03 04:40:30;;;;;;;4.88;2.63;;;10.50;99.90;;;;;;5026256;28;20208;-70
2022/06/03 04:43:21;;;;;;;3.55;2.67;;;10.50;99.90;;;;;;5023069;28;20128;-70
2022/06/03 04:46:24;;;;;;;2.80;2.20;;;10.60;99.90;;;;;;5025826;28;20552;-71
2022/06/03 04:49:10;;;;;;;3.25;2.50;;;10.60;99.90;;;;;;5035776;28;20471;-71
2022/06/03 04:52:04;;;;;;;3.65;2.80;;;10.60;99.90;;;;;;5029766;28;20056;-71
2022/06/03 04:54:44;;;;;;;3.55;2.78;;;10.70;99.90;;;;;;5009044;28;20187;-71
2022/06/03 04:57:35;;;;;;;4.07;3.20;;;10.70;99.90;;;;;;5026466;28;20068;-72
2022/06/03 05:00:20;;;;;;;3.17;2.65;;;10.90;99.90;;;;;;5025333;28;20397;-72
2022/06/03 05:03:12;;;;;;;2.67;2.22;;;10.90;99.90;;;;;;5024427;28;20116;-73
2022/06/03 05:05:47;;;;;;;2.78;2.35;;;11.00;99.90;;;;;;5020311;28;20041;-71
2022/06/03 05:08:24;;;;;;;3.42;2.50;;;11.10;99.90;;;;;;5010220;28;20052;-71
2022/06/03 05:11:12;;;;;;;3.45;2.40;;;11.10;99.90;;;;;;5023225;28;20098;-72
2022/06/03 05:13:43;;;;;;;3.78;2.90;;;11.10;99.90;;;;;;5021673;28;20429;-75
2022/06/03 05:16:42;;;;;;;4.22;3.20;;;11.20;99.90;;;;;;5026463;28;20419;-75
2022/06/03 05:19:20;;;;;;;2.97;2.50;;;11.30;99.90;;;;;;5012242;28;20056;-75
2022/06/03 05:22:10;;;;;;;2.70;1.98;;;11.30;99.90;;;;;;5026718;28;20072;-75
2022/06/03 05:24:49;;;;;;;4.28;3.00;;;11.40;99.90;;;;;;5020206;28;20048;-75
2022/06/03 05:27:33;;;;;;;2.85;2.00;;;11.40;99.90;;;;;;5027324;28;20645;-76
2022/06/03 05:30:40;;;;;;;3.20;2.00;;;11.50;99.90;;;;;;5005771;28;20052;-76
2022/06/03 05:33:21;;;;;;;2.72;2.00;;;11.60;99.90;;;;;;5028450;28;20048;-76
2022/06/03 05:36:24;;;;;;;2.92;2.55;;;11.60;99.90;;;;;;5022185;28;20083;-72
2022/06/03 05:39:28;;;;;;;2.45;2.25;;;11.70;99.90;;;;;;4984510;28;20038;-72
2022/06/03 05:42:33;;;;;;;3.63;2.38;;;11.70;99.90;;;;;;5024003;28;20505;-72
2022/06/03 05:45:23;;;;;;;3.05;2.30;;;11.90;99.90;;;;;;5011102;28;20041;-71
2022/06/03 05:47:55;;;;;;;3.25;2.00;;;12.00;99.90;;;;;;5022103;28;20435;-71
2022/06/03 05:50:53;;;;;;;2.35;1.80;;;12.00;99.90;;;;;;5022901;28;20041;-71
2022/06/03 05:53:42;;;;;;;;;;;12.20;99.90;;;;;;4975199;28;20486;-71
2022/06/03 05:56:26;;;;;;;2.55;1.80;;;12.40;99.90;;;;;;5026690;28;19925;-71
2022/06/03 05:59:07;;;;;;;2.20;1.60;;;12.50;99.90;;;;;;5021906;28;20135;-70
2022/06/03 06:01:53;;;;;;;2.78;1.73;;;12.70;99.90;;;;;;5011083;28;20095;-70
2022/06/03 06:04:39;;;;;;;3.35;2.00;;;12.80;99.90;;;;;;5026967;28;20076;-70
2022/06/03 06:07:14;;;;;;;3.17;1.73;;;13.00;99.90;;;;;;5012123;28;20052;-71
2022/06/03 06:09:53;;;;;;;2.53;1.58;;;13.10;99.90;;;;;;5018946;28;20041;-71
2022/06/03 06:12:36;;;;;;;2.28;1.65;;;13.30;99.90;;;;;;5027219;28;20036;-70
2022/06/03 06:15:29;;;;;;;3.20;1.70;;;13.70;99.90;;;;;;5004225;28;20147;-70
2022/06/03 06:18:02;;;;;;;2.85;1.77;;;14.20;99.90;;;;;;5026049;28;20382;-70
2022/06/03 06:20:47;;;;;;;1.65;1.20;;;14.70;99.90;;;;;;5038609;28;20056;-71
2022/06/03 06:23:48;;;;;;;2.10;1.00;;;15.20;99.90;;;;;;5006261;28;20057;-71
2022/06/03 06:26:13;;;;;;;2.50;1.10;;;15.70;99.90;;;;;;5004380;28;20052;-72
2022/06/03 06:28:54;;;;;;;4.72;1.40;;;15.90;99.90;;;;;;5021885;28;20053;-72
2022/06/03 06:32:04;;;;;;;2.80;1.30;;;15.80;99.90;;;;;;5015980;28;20038;-71
2022/06/03 06:34:52;;;;;;;2.65;1.67;;;15.50;99.90;;;;;;5003562;28;20030;-73
2022/06/03 06:37:48;;;;;;;1.50;1.00;;;15.30;99.90;;;;;;5023991;28;20390;-73
2022/06/03 06:40:44;;;;;;;2.05;1.10;;;15.30;99.90;;;;;;5028682;28;20046;-72
2022/06/03 06:43:32;;;;;;;2.63;1.10;;;15.20;99.90;;;;;;5022909;28;20042;-72
2022/06/03 06:45:57;;;;;;;;;;;15.10;99.90;;;;;;5027628;28;20064;-71
2022/06/03 06:48:51;;;;;;;2.03;1.08;;;15.00;99.90;;;;;;5029405;28;19964;-71
2022/06/03 06:51:55;;;;;;;2.92;1.30;;;15.00;99.90;;;;;;5031752;28;20041;-71
2022/06/03 06:54:44;;;;;;;1.02;0.80;;;15.00;99.90;;;;;;4985826;28;20114;-71
2022/06/03 06:57:17;;;;;;;1.70;1.00;;;15.10;99.90;;;;;;5017729;28;20518;-77
2022/06/03 07:00:10;;;;;;;2.92;1.10;;;15.30;99.90;;;;;;5024855;28;20494;-77
2022/06/03 07:02:53;;;;;;;1.30;0.90;;;15.30;99.90;;;;;;5027254;28;20099;-77
2022/06/03 07:05:29;;;;;;;1.30;0.70;;;15.40;99.90;;;;;;5024695;28;20057;-77
2022/06/03 07:08:09;;;;;;;2.38;1.05;;;15.50;99.90;;;;;;5012592;28;20049;-76
2022/06/03 07:11:06;;;;;;;3.15;1.20;;;15.60;99.90;;;;;;5026711;28;20125;-77
2022/06/03 07:13:37;;;;;;;3.67;0.90;;;15.80;99.90;;;;;;5027581;28;20048;-77
2022/06/03 07:22:22;;;;;;;1.15;0.70;;;15.90;99.90;;;;;;5028413;28;20518;-79
2022/06/03 07:25:02;;;;;;;1.65;0.60;;;16.10;99.90;;;;;;5021372;28;20053;-78
2022/06/03 07:27:43;;;;;;;2.45;1.00;;;16.40;99.90;;;;;;5031700;28;20111;-78
2022/06/03 07:30:40;;;;;;;1.10;0.63;;;16.50;99.90;;;;;;5006093;28;20042;-78
2022/06/03 07:33:41;;;;;;;3.95;1.05;;;16.60;99.90;;;;;;5030444;28;20045;-77
2022/06/03 07:36:18;;;;;;;2.22;0.90;;;16.70;99.90;;;;;;5024137;28;20136;-77
2022/06/03 07:38:45;;;;;;;;;;;16.80;99.90;;;;;;5030558;28;20106;-78
2022/06/03 07:41:25;;;;;;;2.92;0.80;;;16.90;99.90;;;;;;5041094;28;20004;-78
2022/06/03 07:44:01;;;;;;;1.40;0.82;;;17.10;99.00;;;;;;5008628;28;20052;-77
2022/06/03 07:46:37;;;;;;;1.20;0.70;;;17.20;99.10;;;;;;5028360;28;20132;-78
2022/06/03 07:49:04;;;;;;;;;;;17.20;98.40;;;;;;5027294;28;20095;-77
2022/06/03 07:51:41;;;;;;;1.10;0.60;;;17.30;98.40;;;;;;5030323;28;19931;-78
2022/06/03 07:54:17;;;;;;;1.17;0.60;;;17.50;97.40;;;;;;5023746;28;20041;-78
2022/06/03 07:56:43;;;;;;;0.85;0.40;;;17.60;95.90;;;;;;5011228;28;20076;-78
2022/06/03 07:59:31;;;;;;;1.65;0.57;;;17.80;96.30;;;;;;4997843;28;20073;-78
2022/06/03 08:02:04;;;;;;;1.20;0.60;;;18.00;95.50;;;;;;5031038;28;20061;-78
2022/06/03 08:04:33;;;;;;;1.60;0.80;;;18.20;95.50;;;;;;5026343;28;20107;-78
2022/06/03 08:12:37;;;;;;;0.82;0.70;;;18.70;96.10;;;;;;5012244;28;20064;-78
2022/06/03 08:15:20;;;;;;;2.95;0.95;;;19.00;95.30;;;;;;5019948;28;20154;-78
2022/06/03 08:17:48;;;;;;;2.40;0.70;;;19.20;94.50;;;;;;5009913;28;20049;-78
2022/06/03 08:20:17;;;;;;;1.55;0.55;;;19.30;95.00;;;;;;5036688;28;20502;-77
2022/06/03 08:22:45;;;;;;;1.13;0.55;;;19.40;92.10;;;;;;5030283;28;20045;-79
2022/06/03 08:25:16;;;;;;;1.10;0.50;;;19.60;92.90;;;;;;5028286;28;20073;-79
2022/06/03 08:27:43;;;;;;;1.63;0.40;;;19.80;93.10;;;;;;5026152;28;20060;-78
2022/06/03 08:30:13;;;;;;;1.38;0.63;;;20.00;92.30;;;;;;5026852;28;20077;-79
2022/06/03 08:32:50;;;;;;;0.98;0.50;;;20.00;93.80;;;;;;5027765;28;20559;-78
2022/06/03 08:35:20;;;;;;;0.38;0.38;;;20.10;93.40;;;;;;5024107;28;20514;-79
2022/06/03 08:37:48;;;;;;;1.10;0.50;;;20.20;92.70;;;;;;5010456;28;20037;-78
2022/06/03 08:40:38;;;;;;;0.85;0.60;;;20.30;93.30;;;;;;5022675;28;20148;-78
2022/06/03 08:43:19;;;;;;;2.80;0.70;;;20.30;92.80;;;;;;5030244;28;20180;-77
2022/06/03 08:45:54;;;;;;;1.27;0.57;;;20.30;92.20;;;;;;5021758;28;20033;-77
2022/06/03 08:48:26;;;;;;;0.77;0.63;;;20.30;93.00;;;;;;5028494;28;20077;-78
2022/06/03 08:50:59;;;;;;;1.23;0.50;;;20.30;92.90;;;;;;5030761;28;20072;-78
2022/06/03 08:53:53;;;;;;;1.48;0.60;;;20.30;91.40;;;;;;5025368;28;20033;-78
2022/06/03 08:56:24;;;;;;;0.93;0.60;;;20.40;92.20;;;;;;5021739;28;20156;-80
2022/06/03 08:58:56;;;;;;;1.92;0.70;;;20.50;92.30;;;;;;5028451;28;20510;-79
2022/06/03 09:01:43;;;;;;;2.92;1.02;;;20.60;91.00;;;;;;5025714;28;20034;-73
2022/06/03 09:04:21;;;;;;;1.17;0.75;;;20.70;92.60;;;;;;5023194;28;20394;-72
2022/06/03 09:07:03;;;;;;;1.10;0.68;;;20.70;92.30;;;;;;5021230;28;20087;-73
2022/06/03 09:09:47;;;;;;;0.65;0.52;;;20.90;91.50;;;;;;5026731;28;20405;-71
2022/06/03 09:12:23;;;;;;;2.20;0.65;;;21.20;91.80;;;;;;5026584;28;20041;-72
2022/06/03 09:14:52;;;;;;;1.10;0.60;;;21.20;91.90;;;;;;5022534;28;20112;-72
2022/06/03 09:17:24;;;;;;;0.93;0.70;;;21.40;91.80;;;;;;5011827;28;20496;-72
2022/06/03 09:19:54;;;;;;;2.15;0.95;;;21.20;91.60;;;;;;5026121;28;20049;-72
2022/06/03 09:22:26;;;;;;;1.10;0.75;;;21.20;91.50;;;;;;5025328;28;20041;-73
2022/06/03 09:24:56;;;;;;;0.82;0.57;;;21.30;91.30;;;;;;5010252;28;20115;-73
2022/06/03 09:27:22;;;;;;;1.00;0.60;;;21.60;91.20;;;;;;5028774;28;20053;-73
2022/06/03 09:29:52;;;;;;;0.82;0.63;;;21.60;91.70;;;;;;5026683;28;20049;-74
2022/06/03 09:32:19;;;;;;;1.33;0.80;;;21.60;91.60;;;;;;5029081;28;20382;-73
2022/06/03 09:35:03;;;;;;;1.45;0.73;;;21.70;91.20;;;;;;5028771;28;20435;-73
2022/06/03 09:37:36;;;;;;;0.80;0.60;;;21.60;90.70;;;;;;5029285;28;20099;-73
2022/06/03 09:40:07;;;;;;;1.42;0.70;;;21.60;90.60;;;;;;5026270;28;20053;-74
2022/06/03 09:42:34;;;;;;;1.95;0.68;;;21.70;91.50;;;;;;5026988;28;20041;-74
2022/06/03 09:45:04;;;;;;;0.95;0.60;;;21.90;91.00;;;;;;5026582;28;20049;-73
2022/06/03 09:47:31;;;;;;;1.30;0.70;;;21.90;91.50;;;;;;5028426;28;20338;-73
2022/06/03 09:49:57;;;;;;;1.10;0.60;;;22.10;90.70;;;;;;5022379;28;20047;-74
2022/06/03 09:52:27;;;;;;;1.10;0.70;;;22.10;89.00;;;;;;5024209;28;20032;-74
2022/06/03 09:54:54;;;;;;;1.10;0.80;;;22.10;89.90;;;;;;5026618;28;20037;-73
2022/06/03 09:57:36;;;;;;;1.35;0.90;;;22.20;90.80;;;;;;5011733;28;20034;-81
2022/06/03 10:00:08;;;;;;;1.50;0.88;;;22.00;90.10;;;;;;5028764;28;20084;-80
2022/06/03 10:02:35;;;;;;;1.42;0.80;;;22.10;90.00;;;;;;5020399;28;20075;-79
2022/06/03 10:05:06;;;;;;;1.27;0.70;;;22.10;90.20;;;;;;5004229;28;20080;-80
2022/06/03 10:07:32;;;;;;;0.90;0.50;;;22.10;90.40;;;;;;5002534;28;20042;-80
2022/06/03 10:12:49;;;;;;;0.80;0.63;;;22.40;89.50;;;;;;5004339;28;20136;-80
2022/06/03 10:15:43;;;;;;;0.77;0.68;;;22.70;88.20;;;;;;5012219;28;20100;-80
2022/06/03 10:18:35;;;;;;;1.23;0.60;;;22.70;88.20;;;;;;5024426;28;20540;-80
2022/06/03 10:21:14;;;;;;;0.85;0.70;;;22.80;88.20;;;;;;5000728;28;20387;-80
2022/06/03 10:23:51;;;;;;;1.30;0.90;;;22.80;87.70;;;;;;5012116;28;20390;-79
2022/06/03 10:26:30;;;;;;;2.03;0.80;;;22.90;87.90;;;;;;5021369;28;20041;-80
2022/06/03 10:29:04;;;;;;;3.55;1.20;;;23.00;88.10;;;;;;5016681;28;20136;-80
2022/06/03 10:31:33;;;;;;;3.25;1.10;;;22.80;86.60;;;;;;5027770;28;20037;-80
2022/06/03 10:34:09;;;;;;;2.20;0.90;;;22.70;86.60;;;;;;5016876;28;20049;-80
2022/06/03 10:36:36;;;;;;;0.85;0.70;;;22.80;84.90;;;;;;5027097;28;20371;-78
2022/06/03 10:39:02;;;;;;;1.13;0.70;;;22.80;86.60;;;;;;5024753;28;20061;-79
2022/06/03 10:41:51;;;;;;;2.95;0.80;;;22.80;83.40;;;;;;5021419;28;20136;-79
2022/06/03 10:44:23;;;;;;;1.38;0.68;;;22.90;86.20;;;;;;5018565;28;20712;-78
2022/06/03 10:47:03;;;;;;;1.63;0.95;;;23.10;86.10;;;;;;5023852;28;20060;-79
2022/06/03 10:49:31;;;;;;;2.30;1.10;;;23.00;83.90;;;;;;5009979;28;20119;-78
2022/06/03 11:03:07;;;;;;;0.88;0.77;;;23.20;82.70;;;;;;5033257;28;20041;-77
2022/06/03 11:05:37;;;;;;;1.77;0.85;;;23.20;84.40;;;;;;5025378;28;20049;-77
2022/06/03 11:08:09;;;;;;;1.25;0.80;;;23.40;83.20;;;;;;5021486;28;20060;-77
2022/06/03 11:10:49;;;;;;;1.17;0.70;;;23.20;80.90;;;;;;5008582;28;20041;-77
2022/06/03 11:13:31;;;;;;;1.33;0.80;;;23.10;81.40;;;;;;5030446;28;20125;-77
2022/06/03 11:16:11;;;;;;;1.73;0.70;;;22.70;81.30;;;;;;5010341;28;20033;-77
2022/06/03 11:18:37;;;;;;;0.77;0.47;;;23.00;83.00;;;;;;5012702;28;20061;-77
2022/06/03 11:21:25;;;;;;;1.17;0.70;;;23.40;81.90;;;;;;5012459;28;20049;-77
2022/06/03 11:23:52;;;;;;;1.85;1.00;;;23.30;82.30;;;;;;5031825;28;20378;-77
2022/06/03 11:26:17;;;;;;;1.70;0.88;;;23.40;82.40;;;;;;5031307;28;20038;-77
2022/06/03 11:28:51;;;;;;;0.95;0.63;;;23.20;79.80;;;;;;5025658;28;20103;-77
2022/06/03 11:31:29;;;;;;;1.08;0.70;;;23.50;81.70;;;;;;5014211;28;20041;-76
2022/06/03 11:34:04;;;;;;;2.25;1.02;;;23.50;80.90;;;;;;5026684;28;20179;-77
2022/06/03 11:36:40;;;;;;;2.08;1.20;;;23.60;80.60;;;;;;5025017;28;20042;-77
2022/06/03 11:39:18;;;;;;;;;;;23.50;79.80;;;;;;5029443;28;20045;-79
2022/06/03 11:41:50;;;;;;;;;;;23.60;81.20;;;;;;5049614;28;19929;-78
2022/06/03 11:44:25;;;;;;;1.10;0.60;;;23.70;80.30;;;;;;5036330;28;19924;-78
2022/06/03 11:47:17;;;;;;;1.05;0.70;;;23.70;79.10;;;;;;5015826;28;20041;-77
2022/06/03 11:49:43;;;;;;;1.90;0.70;;;23.60;77.90;;;;;;5016242;28;20049;-72
2022/06/03 11:52:09;;;;;;;0.60;0.50;;;23.90;79.00;;;;;;5028859;28;20057;-72
2022/06/03 11:54:36;;;;;;;1.33;0.60;;;24.00;79.10;;;;;;5029962;28;20045;-72
2022/06/03 11:57:02;;;;;;;1.38;0.80;;;24.30;79.40;;;;;;5022004;28;20044;-71
2022/06/03 11:59:38;;;;;;;1.15;0.60;;;23.90;76.50;;;;;;5025347;28;20041;-71
2022/06/03 12:02:10;;;;;;;;;;;24.00;76.80;;;;;;5026890;28;20049;-72
2022/06/03 12:04:45;;;;;;;0.63;0.60;;;24.50;77.40;;;;;;5025140;28;19917;-72
2022/06/03 12:07:32;;;;;;;1.17;0.50;;;24.50;78.20;;;;;;5029214;28;20054;-72
2022/06/03 12:10:04;;;;;;;1.33;0.80;;;24.70;78.60;;;;;;5012144;28;20057;-72
2022/06/03 12:15:41;;;;;;;2.08;0.82;;;24.10;77.80;;;;;;5027955;28;20083;-72
2022/06/03 12:18:06;;;;;;;2.42;0.70;;;23.70;77.10;;;;;;5028154;28;20128;-72
2022/06/03 12:20:32;;;;;;;1.88;0.90;;;23.90;78.50;;;;;;5010863;28;20127;-72
2022/06/03 12:23:13;;;;;;;1.67;0.98;;;24.10;78.30;;;;;;5026930;28;20093;-72
2022/06/03 12:26:03;;;;;;;3.00;1.00;;;24.10;76.80;;;;;;5026113;28;20040;-71
2022/06/03 12:28:32;;;;;;;1.10;0.70;;;24.10;77.40;;;;;;5022156;28;20048;-77
2022/06/03 12:31:08;;;;;;;1.45;0.80;;;24.30;78.90;;;;;;5025657;28;20041;-77
2022/06/03 12:33:48;;;;;;;1.35;0.80;;;24.30;78.60;;;;;;5031808;28;20037;-77
2022/06/03 12:36:36;;;;;;;1.25;0.63;;;24.30;79.20;;;;;;5031129;28;20037;-76
2022/06/03 12:39:07;;;;;;;1.27;0.80;;;24.30;78.70;;;;;;5026092;28;20041;-78
2022/06/03 12:41:45;;;;;;;0.85;0.70;;;24.40;78.60;;;;;;5029248;28;20098;-78
2022/06/03 12:44:32;;;;;;;1.67;0.82;;;24.50;77.00;;;;;;5028892;28;20041;-79
2022/06/03 12:47:32;;;;;;;1.63;0.80;;;24.50;77.80;;;;;;5024960;28;20051;-79
2022/06/03 12:50:30;;;;;;;1.50;0.65;;;24.60;77.60;;;;;;5028342;28;20711;-78
2022/06/03 12:53:06;;;;;;;1.38;0.70;;;24.80;76.50;;;;;;5007247;28;20064;-78
2022/06/03 12:55:36;;;;;;;1.05;0.63;;;24.50;76.60;;;;;;5029748;28;20037;-77
2022/06/03 12:58:26;;;;;;;1.00;0.50;;;24.10;78.80;;;;;;5013036;28;20045;-77
2022/06/03 13:00:57;;;;;;;1.38;0.60;;;24.00;79.30;;;;;;5013270;28;20052;-71
2022/06/03 13:03:26;;;;;;;2.22;0.68;;;24.30;79.40;;;;;;5027409;28;20044;-73
2022/06/03 13:05:54;;;;;;;0.57;0.40;;;23.80;79.70;;;;;;5027742;28;20033;-73
2022/06/03 13:11:42;;;;;;;2.25;0.80;;;23.90;79.00;;;;;;5029512;28;20064;-73
2022/06/03 13:14:28;;;;;;;2.25;0.85;;;23.60;79.80;;;;;;5007037;28;20084;-79
2022/06/03 13:16:54;;;;;;;1.33;0.60;;;23.30;80.70;;;;;;5018825;28;22047;-73
2022/06/03 13:19:26;;;;;;;3.80;0.63;;;23.30;81.20;;;;;;5023475;28;20118;-73
2022/06/03 13:22:07;;;;;;;1.30;0.60;;;23.20;81.30;;;;;;5024412;28;20053;-73
2022/06/03 13:24:38;;;;;;;1.90;0.75;;;23.20;81.50;;;;;;5022641;28;21484;-79
2022/06/03 13:27:12;;;;;;;2.13;0.80;;;23.30;82.00;;;;;;5018885;28;20049;-80
2022/06/03 13:29:50;;;;;;;1.75;0.90;;;23.30;80.90;;;;;;5007976;28;20049;-79
2022/06/03 13:32:16;;;;;;;2.40;0.82;;;22.90;81.50;;;;;;5039555;28;20044;-79
2022/06/03 13:34:43;;;;;;;2.20;0.70;;;22.60;81.50;;;;;;5022090;28;20133;-77
2022/06/03 13:37:30;;;;;;;1.85;0.60;;;22.70;83.20;;;;;;5007396;28;20148;-78
2022/06/03 13:39:59;;;;;;;1.45;0.80;;;23.00;82.60;;;;;;5027315;28;20417;-78
2022/06/03 13:42:58;;;;;;;2.25;0.68;;;22.90;80.70;;;;;;5015778;28;20502;-80
2022/06/03 13:45:48;;;;;;;1.23;0.65;;;23.10;82.50;;;;;;5014509;28;20124;-80
2022/06/03 13:48:24;;;;;;;1.88;0.70;;;23.10;80.50;;;;;;5008136;28;20045;-78
2022/06/03 13:50:50;;;;;;;1.95;0.80;;;22.80;78.80;;;;;;5019553;28;20119;-79
2022/06/03 13:53:30;;;;;;;1.23;0.60;;;22.90;79.60;;;;;;5021297;28;20042;-80
2022/06/03 13:56:04;;;;;;;3.47;0.80;;;22.90;81.00;;;;;;5020746;28;20034;-80
2022/06/03 13:58:41;;;;;;;1.17;0.60;;;22.90;80.10;;;;;;5020246;28;20042;-79
2022/06/03 14:01:26;;;;;;;2.92;0.98;;;22.80;80.40;;;;;;5005157;28;20568;-70
2022/06/03 14:04:20;;;;;;;1.63;0.60;;;22.40;80.00;;;;;;5016975;28;20118;-72
2022/06/03 14:07:03;;;;;;;2.38;0.73;;;22.50;81.30;;;;;;5021273;28;20098;-72
2022/06/03 14:10:01;;;;;;;1.55;0.68;;;22.50;81.50;;;;;;5024041;28;20060;-72
2022/06/03 14:12:38;;;;;;;3.50;0.88;;;22.10;80.40;;;;;;5004051;28;20034;-72
2022/06/03 14:15:13;;;;;;;0.85;0.63;;;21.90;80.90;;;;;;5008329;28;20529;-72
2022/06/03 14:17:55;;;;;;;1.17;0.60;;;21.80;81.00;;;;;;5009031;28;20470;-72
2022/06/03 14:20:43;;;;;;;2.15;0.65;;;21.70;81.60;;;;;;5002005;28;20048;-70
2022/06/03 14:23:36;;;;;;;3.05;0.60;;;21.50;79.70;;;;;;5023762;28;20057;-70
2022/06/03 14:26:14;;;;;;;3.63;0.98;;;21.50;79.60;;;;;;5024306;28;20048;-70
2022/06/03 14:28:56;;;;;;;2.30;0.80;;;21.70;79.40;;;;;;5025019;28;20041;-70
2022/06/03 14:31:27;;;;;;;3.28;0.75;;;21.70;77.70;;;;;;5013866;28;20056;-79
2022/06/03 14:33:56;;;;;;;3.38;0.55;;;21.70;77.60;;;;;;5029817;28;20080;-79
2022/06/03 14:36:24;;;;;;;1.75;0.63;;;21.60;76.90;;;;;;5026726;28;20045;-79
2022/06/03 14:39:21;;;;;;;1.85;0.73;;;21.70;78.60;;;;;;5014376;28;20131;-78
2022/06/03 14:41:53;;;;;;;2.05;0.65;;;21.80;77.80;;;;;;5018779;28;20053;-80
2022/06/03 14:44:22;;;;;;;1.75;0.60;;;21.90;77.20;;;;;;5024251;28;20057;-79